sensor_id;sensor_type;location;lat;lon;timestamp;P1;durP1;ratioP1;P2;durP2;ratioP2
7737;SDS011;29398;45.328;5.558;2022-11-20T00:00:07;9.15;;;6.80;;
7737;SDS011;29398;45.328;5.558;2022-11-20T00:01:10;6.53;;;5.15;;
7737;SDS011;29398;45.328;5.558;2022-11-20T00:02:15;6.25;;;4.45;;
7737;SDS011;29398;45.328;5.558;2022-11-20T00:03:19;4.78;;;3.55;;
7737;SDS011;29398;45.328;5.558;2022-11-20T00:04:20;4.70;;;3.83;;
7737;SDS011;29398;45.328;5.558;2022-11-20T00:05:22;4.50;;;3.53;;
7737;SDS011;29398;45.328;5.558;2022-11-20T00:06:23;4.32;;;3.30;;
7737;SDS011;29398;45.328;5.558;2022-11-20T00:07:26;4.78;;;3.03;;
7737;SDS011;29398;45.328;5.558;2022-11-20T00:08:27;4.50;;;3.13;;
7737;SDS011;29398;45.328;5.558;2022-11-20T00:09:29;4.10;;;3.33;;
7737;SDS011;29398;45.328;5.558;2022-11-20T00:10:31;5.50;;;3.53;;
7737;SDS011;29398;45.328;5.558;2022-11-20T00:11:32;5.07;;;3.40;;
7737;SDS011;29398;45.328;5.558;2022-11-20T00:12:34;4.05;;;3.63;;
7737;SDS011;29398;45.328;5.558;2022-11-20T00:13:35;5.07;;;3.92;;
7737;SDS011;29398;45.328;5.558;2022-11-20T00:14:38;8.43;;;4.65;;
7737;SDS011;29398;45.328;5.558;2022-11-20T00:15:39;9.02;;;5.30;;
7737;SDS011;29398;45.328;5.558;2022-11-20T00:16:41;7.50;;;4.60;;
7737;SDS011;29398;45.328;5.558;2022-11-20T00:17:42;7.22;;;5.00;;
7737;SDS011;29398;45.328;5.558;2022-11-20T00:18:46;7.28;;;4.93;;
7737;SDS011;29398;45.328;5.558;2022-11-20T00:19:47;5.78;;;4.60;;
7737;SDS011;29398;45.328;5.558;2022-11-20T00:20:49;13.50;;;8.73;;
7737;SDS011;29398;45.328;5.558;2022-11-20T00:21:50;12.50;;;9.02;;
7737;SDS011;29398;45.328;5.558;2022-11-20T00:22:54;11.15;;;8.15;;
7737;SDS011;29398;45.328;5.558;2022-11-20T00:23:55;9.93;;;7.22;;
7737;SDS011;29398;45.328;5.558;2022-11-20T00:24:58;10.77;;;7.78;;
7737;SDS011;29398;45.328;5.558;2022-11-20T00:26:01;11.90;;;7.13;;
7737;SDS011;29398;45.328;5.558;2022-11-20T00:27:04;13.80;;;9.90;;
7737;SDS011;29398;45.328;5.558;2022-11-20T00:28:05;14.93;;;10.52;;
7737;SDS011;29398;45.328;5.558;2022-11-20T00:29:08;9.70;;;7.15;;
7737;SDS011;29398;45.328;5.558;2022-11-20T00:30:10;8.23;;;6.00;;
7737;SDS011;29398;45.328;5.558;2022-11-20T00:31:13;9.85;;;6.70;;
7737;SDS011;29398;45.328;5.558;2022-11-20T00:32:14;6.20;;;4.85;;
7737;SDS011;29398;45.328;5.558;2022-11-20T00:33:16;5.45;;;4.55;;
7737;SDS011;29398;45.328;5.558;2022-11-20T00:34:19;4.30;;;3.90;;
7737;SDS011;29398;45.328;5.558;2022-11-20T00:35:21;5.15;;;3.80;;
7737;SDS011;29398;45.328;5.558;2022-11-20T00:36:23;4.07;;;3.45;;
7737;SDS011;29398;45.328;5.558;2022-11-20T00:37:26;3.53;;;2.92;;
7737;SDS011;29398;45.328;5.558;2022-11-20T00:38:27;4.43;;;2.90;;
7737;SDS011;29398;45.328;5.558;2022-11-20T00:39:29;4.75;;;2.88;;
7737;SDS011;29398;45.328;5.558;2022-11-20T00:40:30;2.85;;;2.58;;
7737;SDS011;29398;45.328;5.558;2022-11-20T00:41:32;2.80;;;2.55;;
7737;SDS011;29398;45.328;5.558;2022-11-20T00:42:33;4.05;;;2.83;;
7737;SDS011;29398;45.328;5.558;2022-11-20T00:43:36;3.72;;;2.42;;
7737;SDS011;29398;45.328;5.558;2022-11-20T00:44:37;6.10;;;2.90;;
7737;SDS011;29398;45.328;5.558;2022-11-20T00:45:39;3.00;;;2.55;;
7737;SDS011;29398;45.328;5.558;2022-11-20T00:46:43;2.90;;;2.53;;
7737;SDS011;29398;45.328;5.558;2022-11-20T00:47:45;3.03;;;2.60;;
7737;SDS011;29398;45.328;5.558;2022-11-20T00:48:46;3.03;;;2.42;;
7737;SDS011;29398;45.328;5.558;2022-11-20T00:49:50;4.00;;;2.50;;
7737;SDS011;29398;45.328;5.558;2022-11-20T00:50:51;2.85;;;2.50;;
7737;SDS011;29398;45.328;5.558;2022-11-20T00:51:53;2.92;;;2.30;;
7737;SDS011;29398;45.328;5.558;2022-11-20T00:52:54;2.78;;;2.30;;
7737;SDS011;29398;45.328;5.558;2022-11-20T00:53:56;3.80;;;2.65;;
7737;SDS011;29398;45.328;5.558;2022-11-20T00:54:57;2.92;;;2.38;;
7737;SDS011;29398;45.328;5.558;2022-11-20T00:56:00;2.85;;;2.50;;
7737;SDS011;29398;45.328;5.558;2022-11-20T00:57:02;2.60;;;2.30;;
7737;SDS011;29398;45.328;5.558;2022-11-20T00:58:04;4.10;;;2.42;;
7737;SDS011;29398;45.328;5.558;2022-11-20T00:59:06;3.10;;;2.35;;
7737;SDS011;29398;45.328;5.558;2022-11-20T01:00:10;3.25;;;2.80;;
7737;SDS011;29398;45.328;5.558;2022-11-20T01:01:12;3.85;;;2.40;;
7737;SDS011;29398;45.328;5.558;2022-11-20T01:02:15;4.10;;;2.70;;
7737;SDS011;29398;45.328;5.558;2022-11-20T01:03:16;3.00;;;2.40;;
7737;SDS011;29398;45.328;5.558;2022-11-20T01:04:19;2.88;;;2.50;;
7737;SDS011;29398;45.328;5.558;2022-11-20T01:05:22;3.92;;;2.70;;
7737;SDS011;29398;45.328;5.558;2022-11-20T01:06:24;2.92;;;2.28;;
7737;SDS011;29398;45.328;5.558;2022-11-20T01:07:27;2.67;;;2.40;;
7737;SDS011;29398;45.328;5.558;2022-11-20T01:08:31;2.83;;;2.40;;
7737;SDS011;29398;45.328;5.558;2022-11-20T01:09:34;2.90;;;2.60;;
7737;SDS011;29398;45.328;5.558;2022-11-20T01:10:35;2.60;;;2.40;;
7737;SDS011;29398;45.328;5.558;2022-11-20T01:11:38;3.65;;;2.40;;
7737;SDS011;29398;45.328;5.558;2022-11-20T01:12:40;2.72;;;2.30;;
7737;SDS011;29398;45.328;5.558;2022-11-20T01:13:42;3.90;;;2.85;;
7737;SDS011;29398;45.328;5.558;2022-11-20T01:14:45;4.55;;;2.85;;
7737;SDS011;29398;45.328;5.558;2022-11-20T01:15:48;4.93;;;2.60;;
7737;SDS011;29398;45.328;5.558;2022-11-20T01:16:50;4.38;;;3.08;;
7737;SDS011;29398;45.328;5.558;2022-11-20T01:17:52;2.97;;;2.72;;
7737;SDS011;29398;45.328;5.558;2022-11-20T01:18:55;3.38;;;2.70;;
7737;SDS011;29398;45.328;5.558;2022-11-20T01:19:58;3.58;;;2.60;;
7737;SDS011;29398;45.328;5.558;2022-11-20T01:21:02;3.92;;;2.70;;
7737;SDS011;29398;45.328;5.558;2022-11-20T01:22:05;3.50;;;2.65;;
7737;SDS011;29398;45.328;5.558;2022-11-20T01:23:06;4.40;;;2.72;;
7737;SDS011;29398;45.328;5.558;2022-11-20T01:24:10;2.70;;;2.30;;
7737;SDS011;29398;45.328;5.558;2022-11-20T01:25:13;3.40;;;2.25;;
7737;SDS011;29398;45.328;5.558;2022-11-20T01:26:15;3.72;;;2.45;;
7737;SDS011;29398;45.328;5.558;2022-11-20T01:27:18;4.32;;;2.58;;
7737;SDS011;29398;45.328;5.558;2022-11-20T01:28:20;3.13;;;2.35;;
7737;SDS011;29398;45.328;5.558;2022-11-20T01:29:22;4.80;;;2.78;;
7737;SDS011;29398;45.328;5.558;2022-11-20T01:30:25;3.00;;;2.58;;
7737;SDS011;29398;45.328;5.558;2022-11-20T01:31:27;4.43;;;2.75;;
7737;SDS011;29398;45.328;5.558;2022-11-20T01:32:30;3.95;;;2.83;;
7737;SDS011;29398;45.328;5.558;2022-11-20T01:33:31;6.28;;;3.10;;
7737;SDS011;29398;45.328;5.558;2022-11-20T01:34:33;2.90;;;2.70;;
7737;SDS011;29398;45.328;5.558;2022-11-20T01:35:35;3.20;;;2.80;;
7737;SDS011;29398;45.328;5.558;2022-11-20T01:36:38;5.03;;;2.70;;
7737;SDS011;29398;45.328;5.558;2022-11-20T01:37:41;3.72;;;2.90;;
7737;SDS011;29398;45.328;5.558;2022-11-20T01:38:41;2.97;;;2.58;;
7737;SDS011;29398;45.328;5.558;2022-11-20T01:39:44;4.85;;;2.92;;
7737;SDS011;29398;45.328;5.558;2022-11-20T01:40:45;4.05;;;2.80;;
7737;SDS011;29398;45.328;5.558;2022-11-20T01:41:55;3.30;;;2.80;;
7737;SDS011;29398;45.328;5.558;2022-11-20T01:46:01;4.20;;;2.85;;
7737;SDS011;29398;45.328;5.558;2022-11-20T01:47:05;3.83;;;2.97;;
7737;SDS011;29398;45.328;5.558;2022-11-20T01:48:10;2.70;;;2.42;;
7737;SDS011;29398;45.328;5.558;2022-11-20T01:49:14;3.00;;;2.70;;
7737;SDS011;29398;45.328;5.558;2022-11-20T01:50:21;4.70;;;2.88;;
7737;SDS011;29398;45.328;5.558;2022-11-20T01:51:26;3.95;;;2.70;;
7737;SDS011;29398;45.328;5.558;2022-11-20T01:52:36;4.53;;;2.78;;
7737;SDS011;29398;45.328;5.558;2022-11-20T01:53:41;4.10;;;2.78;;
7737;SDS011;29398;45.328;5.558;2022-11-20T01:54:44;3.28;;;2.83;;
7737;SDS011;29398;45.328;5.558;2022-11-20T01:55:50;4.80;;;2.40;;
7737;SDS011;29398;45.328;5.558;2022-11-20T01:56:56;3.10;;;2.30;;
7737;SDS011;29398;45.328;5.558;2022-11-20T01:57:59;6.55;;;3.03;;
7737;SDS011;29398;45.328;5.558;2022-11-20T01:59:03;4.18;;;2.70;;
7737;SDS011;29398;45.328;5.558;2022-11-20T02:00:07;3.38;;;2.67;;
7737;SDS011;29398;45.328;5.558;2022-11-20T02:01:13;4.15;;;2.58;;
7737;SDS011;29398;45.328;5.558;2022-11-20T02:02:15;3.22;;;2.80;;
7737;SDS011;29398;45.328;5.558;2022-11-20T02:03:17;3.05;;;2.55;;
7737;SDS011;29398;45.328;5.558;2022-11-20T02:04:19;3.15;;;2.65;;
7737;SDS011;29398;45.328;5.558;2022-11-20T02:05:23;4.05;;;2.90;;
7737;SDS011;29398;45.328;5.558;2022-11-20T02:06:29;5.22;;;3.75;;
7737;SDS011;29398;45.328;5.558;2022-11-20T02:07:35;6.03;;;3.80;;
7737;SDS011;29398;45.328;5.558;2022-11-20T02:08:38;6.55;;;3.55;;
7737;SDS011;29398;45.328;5.558;2022-11-20T02:09:40;3.55;;;3.20;;
7737;SDS011;29398;45.328;5.558;2022-11-20T02:10:41;4.65;;;3.17;;
7737;SDS011;29398;45.328;5.558;2022-11-20T02:11:43;4.45;;;3.30;;
7737;SDS011;29398;45.328;5.558;2022-11-20T02:12:44;3.85;;;3.22;;
7737;SDS011;29398;45.328;5.558;2022-11-20T02:14:04;6.35;;;2.97;;
7737;SDS011;29398;45.328;5.558;2022-11-20T02:15:05;3.60;;;2.90;;
7737;SDS011;29398;45.328;5.558;2022-11-20T02:16:08;4.75;;;3.35;;
7737;SDS011;29398;45.328;5.558;2022-11-20T02:17:11;4.82;;;3.85;;
7737;SDS011;29398;45.328;5.558;2022-11-20T02:18:13;4.15;;;3.75;;
7737;SDS011;29398;45.328;5.558;2022-11-20T02:19:20;4.82;;;3.67;;
7737;SDS011;29398;45.328;5.558;2022-11-20T02:20:24;4.13;;;3.10;;
7737;SDS011;29398;45.328;5.558;2022-11-20T02:21:31;3.88;;;3.30;;
7737;SDS011;29398;45.328;5.558;2022-11-20T02:22:40;3.85;;;3.40;;
7737;SDS011;29398;45.328;5.558;2022-11-20T02:23:54;5.07;;;3.65;;
7737;SDS011;29398;45.328;5.558;2022-11-20T02:25:02;5.45;;;3.88;;
7737;SDS011;29398;45.328;5.558;2022-11-20T02:26:04;3.67;;;3.25;;
7737;SDS011;29398;45.328;5.558;2022-11-20T02:27:10;4.22;;;3.30;;
7737;SDS011;29398;45.328;5.558;2022-11-20T02:28:13;4.32;;;3.08;;
7737;SDS011;29398;45.328;5.558;2022-11-20T02:29:16;4.38;;;2.90;;
7737;SDS011;29398;45.328;5.558;2022-11-20T02:30:20;3.75;;;2.63;;
7737;SDS011;29398;45.328;5.558;2022-11-20T02:31:22;3.10;;;2.80;;
7737;SDS011;29398;45.328;5.558;2022-11-20T02:32:25;4.22;;;2.60;;
7737;SDS011;29398;45.328;5.558;2022-11-20T02:33:28;3.13;;;2.33;;
7737;SDS011;29398;45.328;5.558;2022-11-20T02:34:29;5.03;;;2.42;;
7737;SDS011;29398;45.328;5.558;2022-11-20T02:35:41;3.33;;;2.20;;
7737;SDS011;29398;45.328;5.558;2022-11-20T02:36:43;2.53;;;2.28;;
7737;SDS011;29398;45.328;5.558;2022-11-20T02:37:47;2.40;;;2.10;;
7737;SDS011;29398;45.328;5.558;2022-11-20T02:38:50;2.83;;;2.13;;
7737;SDS011;29398;45.328;5.558;2022-11-20T02:39:54;2.20;;;2.00;;
7737;SDS011;29398;45.328;5.558;2022-11-20T02:40:55;2.92;;;2.13;;
7737;SDS011;29398;45.328;5.558;2022-11-20T02:41:57;2.33;;;2.00;;
7737;SDS011;29398;45.328;5.558;2022-11-20T02:43:01;2.60;;;2.08;;
7737;SDS011;29398;45.328;5.558;2022-11-20T02:44:03;4.10;;;2.10;;
7737;SDS011;29398;45.328;5.558;2022-11-20T02:45:05;2.72;;;1.90;;
7737;SDS011;29398;45.328;5.558;2022-11-20T02:46:08;2.90;;;2.00;;
7737;SDS011;29398;45.328;5.558;2022-11-20T02:47:09;3.30;;;2.10;;
7737;SDS011;29398;45.328;5.558;2022-11-20T02:48:12;2.83;;;2.20;;
7737;SDS011;29398;45.328;5.558;2022-11-20T02:49:13;2.40;;;2.17;;
7737;SDS011;29398;45.328;5.558;2022-11-20T02:50:16;3.33;;;2.00;;
7737;SDS011;29398;45.328;5.558;2022-11-20T02:51:18;4.28;;;2.28;;
7737;SDS011;29398;45.328;5.558;2022-11-20T02:52:20;2.58;;;2.00;;
7737;SDS011;29398;45.328;5.558;2022-11-20T02:53:21;2.95;;;1.90;;
7737;SDS011;29398;45.328;5.558;2022-11-20T02:54:23;3.92;;;2.03;;
7737;SDS011;29398;45.328;5.558;2022-11-20T02:55:26;3.47;;;2.40;;
7737;SDS011;29398;45.328;5.558;2022-11-20T02:56:28;2.40;;;2.20;;
7737;SDS011;29398;45.328;5.558;2022-11-20T02:57:29;2.75;;;2.15;;
7737;SDS011;29398;45.328;5.558;2022-11-20T02:58:31;2.70;;;2.40;;
7737;SDS011;29398;45.328;5.558;2022-11-20T02:59:32;3.05;;;2.30;;
7737;SDS011;29398;45.328;5.558;2022-11-20T03:00:35;2.40;;;2.20;;
7737;SDS011;29398;45.328;5.558;2022-11-20T03:01:36;3.25;;;2.22;;
7737;SDS011;29398;45.328;5.558;2022-11-20T03:02:38;2.67;;;2.20;;
7737;SDS011;29398;45.328;5.558;2022-11-20T03:03:39;2.40;;;2.03;;
7737;SDS011;29398;45.328;5.558;2022-11-20T03:04:42;3.67;;;2.40;;
7737;SDS011;29398;45.328;5.558;2022-11-20T03:05:43;3.58;;;2.33;;
7737;SDS011;29398;45.328;5.558;2022-11-20T03:06:45;2.40;;;2.05;;
7737;SDS011;29398;45.328;5.558;2022-11-20T03:07:46;2.40;;;2.00;;
7737;SDS011;29398;45.328;5.558;2022-11-20T03:08:48;3.10;;;2.28;;
7737;SDS011;29398;45.328;5.558;2022-11-20T03:09:49;2.03;;;1.92;;
7737;SDS011;29398;45.328;5.558;2022-11-20T03:10:52;3.58;;;2.00;;
7737;SDS011;29398;45.328;5.558;2022-11-20T03:11:53;3.17;;;2.25;;
7737;SDS011;29398;45.328;5.558;2022-11-20T03:12:56;2.30;;;2.10;;
7737;SDS011;29398;45.328;5.558;2022-11-20T03:13:57;3.65;;;2.22;;
7737;SDS011;29398;45.328;5.558;2022-11-20T03:15:02;2.97;;;2.00;;
7737;SDS011;29398;45.328;5.558;2022-11-20T03:16:05;2.72;;;2.20;;
7737;SDS011;29398;45.328;5.558;2022-11-20T03:17:09;4.22;;;2.53;;
7737;SDS011;29398;45.328;5.558;2022-11-20T03:18:11;3.45;;;2.15;;
7737;SDS011;29398;45.328;5.558;2022-11-20T03:19:13;2.67;;;2.30;;
7737;SDS011;29398;45.328;5.558;2022-11-20T03:20:15;2.47;;;2.28;;
7737;SDS011;29398;45.328;5.558;2022-11-20T03:21:16;4.07;;;2.53;;
7737;SDS011;29398;45.328;5.558;2022-11-20T03:22:18;2.25;;;1.85;;
7737;SDS011;29398;45.328;5.558;2022-11-20T03:23:22;2.95;;;2.10;;
7737;SDS011;29398;45.328;5.558;2022-11-20T03:24:24;2.20;;;2.00;;
7737;SDS011;29398;45.328;5.558;2022-11-20T03:25:26;2.22;;;1.75;;
7737;SDS011;29398;45.328;5.558;2022-11-20T03:26:29;3.90;;;1.85;;
7737;SDS011;29398;45.328;5.558;2022-11-20T03:27:31;3.65;;;2.33;;
7737;SDS011;29398;45.328;5.558;2022-11-20T03:28:34;2.28;;;2.08;;
7737;SDS011;29398;45.328;5.558;2022-11-20T03:29:35;2.83;;;2.08;;
7737;SDS011;29398;45.328;5.558;2022-11-20T03:30:37;3.00;;;2.05;;
7737;SDS011;29398;45.328;5.558;2022-11-20T03:31:39;3.25;;;2.08;;
7737;SDS011;29398;45.328;5.558;2022-11-20T03:32:41;2.55;;;2.10;;
7737;SDS011;29398;45.328;5.558;2022-11-20T03:33:42;3.80;;;2.20;;
7737;SDS011;29398;45.328;5.558;2022-11-20T03:34:45;2.47;;;2.20;;
7737;SDS011;29398;45.328;5.558;2022-11-20T03:35:46;2.47;;;2.28;;
7737;SDS011;29398;45.328;5.558;2022-11-20T03:36:47;2.47;;;2.17;;
7737;SDS011;29398;45.328;5.558;2022-11-20T03:37:49;2.83;;;2.10;;
7737;SDS011;29398;45.328;5.558;2022-11-20T03:38:52;2.53;;;2.25;;
7737;SDS011;29398;45.328;5.558;2022-11-20T03:39:54;3.63;;;2.22;;
7737;SDS011;29398;45.328;5.558;2022-11-20T03:40:57;2.45;;;2.25;;
7737;SDS011;29398;45.328;5.558;2022-11-20T03:42:01;2.10;;;1.98;;
7737;SDS011;29398;45.328;5.558;2022-11-20T03:43:23;2.05;;;1.85;;
7737;SDS011;29398;45.328;5.558;2022-11-20T03:44:24;3.40;;;2.10;;
7737;SDS011;29398;45.328;5.558;2022-11-20T03:45:26;2.45;;;2.25;;
7737;SDS011;29398;45.328;5.558;2022-11-20T03:46:28;2.72;;;2.00;;
7737;SDS011;29398;45.328;5.558;2022-11-20T03:47:30;2.03;;;1.92;;
7737;SDS011;29398;45.328;5.558;2022-11-20T03:48:31;3.28;;;2.10;;
7737;SDS011;29398;45.328;5.558;2022-11-20T03:49:34;2.88;;;2.05;;
7737;SDS011;29398;45.328;5.558;2022-11-20T03:50:35;2.38;;;2.17;;
7737;SDS011;29398;45.328;5.558;2022-11-20T03:51:36;2.38;;;2.20;;
7737;SDS011;29398;45.328;5.558;2022-11-20T03:52:38;3.15;;;2.08;;
7737;SDS011;29398;45.328;5.558;2022-11-20T03:53:40;2.25;;;2.05;;
7737;SDS011;29398;45.328;5.558;2022-11-20T03:54:43;2.47;;;2.10;;
7737;SDS011;29398;45.328;5.558;2022-11-20T03:55:44;3.15;;;2.40;;
7737;SDS011;29398;45.328;5.558;2022-11-20T03:56:46;2.90;;;2.42;;
7737;SDS011;29398;45.328;5.558;2022-11-20T03:57:49;2.90;;;2.60;;
7737;SDS011;29398;45.328;5.558;2022-11-20T03:58:51;5.15;;;2.20;;
7737;SDS011;29398;45.328;5.558;2022-11-20T03:59:52;2.95;;;2.17;;
7737;SDS011;29398;45.328;5.558;2022-11-20T04:00:54;3.47;;;2.15;;
7737;SDS011;29398;45.328;5.558;2022-11-20T04:01:55;3.40;;;2.33;;
7737;SDS011;29398;45.328;5.558;2022-11-20T04:02:57;4.55;;;2.80;;
7737;SDS011;29398;45.328;5.558;2022-11-20T04:03:58;2.80;;;2.50;;
7737;SDS011;29398;45.328;5.558;2022-11-20T04:05:01;3.17;;;2.65;;
7737;SDS011;29398;45.328;5.558;2022-11-20T04:06:03;3.97;;;2.60;;
7737;SDS011;29398;45.328;5.558;2022-11-20T04:07:06;3.20;;;2.90;;
7737;SDS011;29398;45.328;5.558;2022-11-20T04:08:07;3.88;;;2.90;;
7737;SDS011;29398;45.328;5.558;2022-11-20T04:09:09;2.90;;;2.70;;
7737;SDS011;29398;45.328;5.558;2022-11-20T04:10:11;3.10;;;2.78;;
7737;SDS011;29398;45.328;5.558;2022-11-20T04:11:16;4.55;;;2.88;;
7737;SDS011;29398;45.328;5.558;2022-11-20T04:12:18;3.20;;;2.63;;
7737;SDS011;29398;45.328;5.558;2022-11-20T04:13:22;3.05;;;2.60;;
7737;SDS011;29398;45.328;5.558;2022-11-20T04:14:23;2.92;;;2.60;;
7737;SDS011;29398;45.328;5.558;2022-11-20T04:15:25;3.17;;;2.53;;
7737;SDS011;29398;45.328;5.558;2022-11-20T04:16:26;4.10;;;2.78;;
7737;SDS011;29398;45.328;5.558;2022-11-20T04:17:32;4.85;;;2.67;;
7737;SDS011;29398;45.328;5.558;2022-11-20T04:18:33;3.17;;;2.60;;
7737;SDS011;29398;45.328;5.558;2022-11-20T04:19:36;3.70;;;3.08;;
7737;SDS011;29398;45.328;5.558;2022-11-20T04:20:37;2.67;;;2.40;;
7737;SDS011;29398;45.328;5.558;2022-11-20T04:21:39;2.90;;;2.22;;
7737;SDS011;29398;45.328;5.558;2022-11-20T04:22:40;2.92;;;2.45;;
7737;SDS011;29398;45.328;5.558;2022-11-20T04:23:42;3.15;;;2.85;;
7737;SDS011;29398;45.328;5.558;2022-11-20T04:24:43;3.42;;;2.90;;
7737;SDS011;29398;45.328;5.558;2022-11-20T04:25:45;3.10;;;2.63;;
7737;SDS011;29398;45.328;5.558;2022-11-20T04:26:46;2.92;;;2.63;;
7737;SDS011;29398;45.328;5.558;2022-11-20T04:27:49;2.65;;;2.40;;
7737;SDS011;29398;45.328;5.558;2022-11-20T04:28:51;2.90;;;2.65;;
7737;SDS011;29398;45.328;5.558;2022-11-20T04:29:53;4.30;;;3.08;;
7737;SDS011;29398;45.328;5.558;2022-11-20T04:30:54;3.22;;;2.65;;
7737;SDS011;29398;45.328;5.558;2022-11-20T04:32:02;4.88;;;3.00;;
7737;SDS011;29398;45.328;5.558;2022-11-20T04:33:03;3.38;;;2.67;;
7737;SDS011;29398;45.328;5.558;2022-11-20T04:34:06;4.68;;;2.90;;
7737;SDS011;29398;45.328;5.558;2022-11-20T04:35:08;4.63;;;2.92;;
7737;SDS011;29398;45.328;5.558;2022-11-20T04:36:11;3.15;;;2.88;;
7737;SDS011;29398;45.328;5.558;2022-11-20T04:37:13;3.47;;;2.83;;
7737;SDS011;29398;45.328;5.558;2022-11-20T04:38:15;4.10;;;2.80;;
7737;SDS011;29398;45.328;5.558;2022-11-20T04:39:16;4.60;;;3.42;;
7737;SDS011;29398;45.328;5.558;2022-11-20T04:40:18;3.55;;;3.00;;
7737;SDS011;29398;45.328;5.558;2022-11-20T04:41:19;3.10;;;2.80;;
7737;SDS011;29398;45.328;5.558;2022-11-20T04:42:23;5.13;;;3.38;;
7737;SDS011;29398;45.328;5.558;2022-11-20T04:43:30;3.90;;;3.50;;
7737;SDS011;29398;45.328;5.558;2022-11-20T04:44:34;3.28;;;2.95;;
7737;SDS011;29398;45.328;5.558;2022-11-20T04:45:35;3.40;;;3.05;;
7737;SDS011;29398;45.328;5.558;2022-11-20T04:46:38;3.58;;;3.20;;
7737;SDS011;29398;45.328;5.558;2022-11-20T04:47:40;4.00;;;3.00;;
7737;SDS011;29398;45.328;5.558;2022-11-20T04:48:42;3.33;;;3.03;;
7737;SDS011;29398;45.328;5.558;2022-11-20T04:49:43;4.13;;;3.33;;
7737;SDS011;29398;45.328;5.558;2022-11-20T04:50:45;3.90;;;3.50;;
7737;SDS011;29398;45.328;5.558;2022-11-20T04:51:46;3.83;;;2.78;;
7737;SDS011;29398;45.328;5.558;2022-11-20T04:52:48;4.15;;;3.15;;
7737;SDS011;29398;45.328;5.558;2022-11-20T04:53:49;3.63;;;3.15;;
7737;SDS011;29398;45.328;5.558;2022-11-20T04:54:51;3.63;;;2.90;;
7737;SDS011;29398;45.328;5.558;2022-11-20T04:55:58;3.85;;;3.30;;
7737;SDS011;29398;45.328;5.558;2022-11-20T04:57:01;3.67;;;3.30;;
7737;SDS011;29398;45.328;5.558;2022-11-20T04:58:02;4.03;;;2.97;;
7737;SDS011;29398;45.328;5.558;2022-11-20T04:59:04;3.55;;;3.00;;
7737;SDS011;29398;45.328;5.558;2022-11-20T05:00:07;3.20;;;2.85;;
7737;SDS011;29398;45.328;5.558;2022-11-20T05:01:11;3.45;;;3.15;;
7737;SDS011;29398;45.328;5.558;2022-11-20T05:02:13;3.78;;;2.80;;
7737;SDS011;29398;45.328;5.558;2022-11-20T05:03:15;3.45;;;3.15;;
7737;SDS011;29398;45.328;5.558;2022-11-20T05:04:16;3.35;;;3.05;;
7737;SDS011;29398;45.328;5.558;2022-11-20T05:05:18;3.25;;;2.80;;
7737;SDS011;29398;45.328;5.558;2022-11-20T05:06:20;3.40;;;3.10;;
7737;SDS011;29398;45.328;5.558;2022-11-20T05:07:23;3.53;;;3.08;;
7737;SDS011;29398;45.328;5.558;2022-11-20T05:08:24;3.55;;;3.25;;
7737;SDS011;29398;45.328;5.558;2022-11-20T05:09:26;2.85;;;2.58;;
7737;SDS011;29398;45.328;5.558;2022-11-20T05:10:27;3.40;;;3.10;;
7737;SDS011;29398;45.328;5.558;2022-11-20T05:11:29;3.25;;;2.88;;
7737;SDS011;29398;45.328;5.558;2022-11-20T05:12:32;2.63;;;2.42;;
7737;SDS011;29398;45.328;5.558;2022-11-20T05:13:34;3.88;;;2.60;;
7737;SDS011;29398;45.328;5.558;2022-11-20T05:14:36;3.00;;;2.72;;
7737;SDS011;29398;45.328;5.558;2022-11-20T05:15:39;3.28;;;2.97;;
7737;SDS011;29398;45.328;5.558;2022-11-20T05:16:40;3.47;;;3.08;;
7737;SDS011;29398;45.328;5.558;2022-11-20T05:17:46;4.72;;;3.05;;
7737;SDS011;29398;45.328;5.558;2022-11-20T05:18:47;4.32;;;2.97;;
7737;SDS011;29398;45.328;5.558;2022-11-20T05:19:50;3.58;;;3.10;;
7737;SDS011;29398;45.328;5.558;2022-11-20T05:20:54;4.22;;;2.83;;
7737;SDS011;29398;45.328;5.558;2022-11-20T05:21:57;3.28;;;3.03;;
7737;SDS011;29398;45.328;5.558;2022-11-20T05:22:58;2.70;;;2.50;;
7737;SDS011;29398;45.328;5.558;2022-11-20T05:24:00;3.17;;;2.67;;
7737;SDS011;29398;45.328;5.558;2022-11-20T05:25:01;3.22;;;2.92;;
7737;SDS011;29398;45.328;5.558;2022-11-20T05:26:04;3.30;;;3.10;;
7737;SDS011;29398;45.328;5.558;2022-11-20T05:27:06;4.40;;;3.15;;
7737;SDS011;29398;45.328;5.558;2022-11-20T05:28:08;3.28;;;2.97;;
7737;SDS011;29398;45.328;5.558;2022-11-20T05:29:09;4.40;;;3.30;;
7737;SDS011;29398;45.328;5.558;2022-11-20T05:30:13;4.53;;;3.17;;
7737;SDS011;29398;45.328;5.558;2022-11-20T05:31:17;3.67;;;3.25;;
7737;SDS011;29398;45.328;5.558;2022-11-20T05:32:20;3.78;;;3.47;;
7737;SDS011;29398;45.328;5.558;2022-11-20T05:33:25;3.53;;;3.22;;
7737;SDS011;29398;45.328;5.558;2022-11-20T05:34:27;3.70;;;3.38;;
7737;SDS011;29398;45.328;5.558;2022-11-20T05:35:28;3.60;;;3.25;;
7737;SDS011;29398;45.328;5.558;2022-11-20T05:36:30;4.38;;;3.60;;
7737;SDS011;29398;45.328;5.558;2022-11-20T05:37:31;3.80;;;3.10;;
7737;SDS011;29398;45.328;5.558;2022-11-20T05:38:33;4.43;;;3.25;;
7737;SDS011;29398;45.328;5.558;2022-11-20T05:39:34;3.83;;;3.53;;
7737;SDS011;29398;45.328;5.558;2022-11-20T05:40:36;4.07;;;3.47;;
7737;SDS011;29398;45.328;5.558;2022-11-20T05:41:37;4.72;;;3.25;;
7737;SDS011;29398;45.328;5.558;2022-11-20T05:42:39;3.22;;;2.92;;
7737;SDS011;29398;45.328;5.558;2022-11-20T05:43:41;3.60;;;3.28;;
7737;SDS011;29398;45.328;5.558;2022-11-20T05:44:44;3.40;;;3.00;;
7737;SDS011;29398;45.328;5.558;2022-11-20T05:45:51;3.55;;;3.25;;
7737;SDS011;29398;45.328;5.558;2022-11-20T05:46:58;4.82;;;3.47;;
7737;SDS011;29398;45.328;5.558;2022-11-20T05:47:59;4.93;;;3.50;;
7737;SDS011;29398;45.328;5.558;2022-11-20T05:49:01;5.20;;;3.80;;
7737;SDS011;29398;45.328;5.558;2022-11-20T05:50:02;3.75;;;3.50;;
7737;SDS011;29398;45.328;5.558;2022-11-20T05:51:06;3.60;;;3.30;;
7737;SDS011;29398;45.328;5.558;2022-11-20T05:52:08;3.67;;;3.35;;
7737;SDS011;29398;45.328;5.558;2022-11-20T05:53:10;5.07;;;3.40;;
7737;SDS011;29398;45.328;5.558;2022-11-20T05:54:11;3.83;;;3.30;;
7737;SDS011;29398;45.328;5.558;2022-11-20T05:55:13;4.72;;;3.70;;
7737;SDS011;29398;45.328;5.558;2022-11-20T05:56:15;3.67;;;3.38;;
7737;SDS011;29398;45.328;5.558;2022-11-20T05:57:18;3.38;;;3.17;;
7737;SDS011;29398;45.328;5.558;2022-11-20T05:58:19;4.07;;;3.28;;
7737;SDS011;29398;45.328;5.558;2022-11-20T05:59:21;3.60;;;3.30;;
7737;SDS011;29398;45.328;5.558;2022-11-20T06:00:22;3.50;;;3.20;;
7737;SDS011;29398;45.328;5.558;2022-11-20T06:01:24;3.17;;;2.88;;
7737;SDS011;29398;45.328;5.558;2022-11-20T06:02:27;4.45;;;3.50;;
7737;SDS011;29398;45.328;5.558;2022-11-20T06:03:29;3.67;;;3.38;;
7737;SDS011;29398;45.328;5.558;2022-11-20T06:04:30;4.22;;;3.40;;
7737;SDS011;29398;45.328;5.558;2022-11-20T06:05:33;5.05;;;3.70;;
7737;SDS011;29398;45.328;5.558;2022-11-20T06:06:34;5.28;;;4.20;;
7737;SDS011;29398;45.328;5.558;2022-11-20T06:07:36;4.50;;;4.03;;
7737;SDS011;29398;45.328;5.558;2022-11-20T06:08:37;4.38;;;4.00;;
7737;SDS011;29398;45.328;5.558;2022-11-20T06:09:39;4.28;;;3.97;;
7737;SDS011;29398;45.328;5.558;2022-11-20T06:10:40;3.80;;;3.50;;
7737;SDS011;29398;45.328;5.558;2022-11-20T06:11:42;5.63;;;3.95;;
7737;SDS011;29398;45.328;5.558;2022-11-20T06:12:43;4.47;;;3.58;;
7737;SDS011;29398;45.328;5.558;2022-11-20T06:13:46;4.28;;;3.90;;
7737;SDS011;29398;45.328;5.558;2022-11-20T06:14:47;4.30;;;3.55;;
7737;SDS011;29398;45.328;5.558;2022-11-20T06:15:49;4.60;;;4.20;;
7737;SDS011;29398;45.328;5.558;2022-11-20T06:16:51;4.35;;;3.95;;
7737;SDS011;29398;45.328;5.558;2022-11-20T06:17:54;4.55;;;3.97;;
7737;SDS011;29398;45.328;5.558;2022-11-20T06:18:56;5.05;;;4.18;;
7737;SDS011;29398;45.328;5.558;2022-11-20T06:19:58;5.18;;;4.25;;
7737;SDS011;29398;45.328;5.558;2022-11-20T06:21:00;5.05;;;4.45;;
7737;SDS011;29398;45.328;5.558;2022-11-20T06:22:03;5.78;;;4.50;;
7737;SDS011;29398;45.328;5.558;2022-11-20T06:23:03;5.57;;;4.72;;
7737;SDS011;29398;45.328;5.558;2022-11-20T06:24:06;6.18;;;5.20;;
7737;SDS011;29398;45.328;5.558;2022-11-20T06:25:09;5.25;;;4.75;;